sensor_id;sensor_type;location;lat;lon;timestamp;P1;durP1;ratioP1;P2;durP2;ratioP2
791;SDS011;379;49.022;12.148;2022-08-05T00:01:11;4.50;;;3.50;;
791;SDS011;379;49.022;12.148;2022-08-05T00:03:38;3.50;;;3.20;;
791;SDS011;379;49.022;12.148;2022-08-05T00:06:05;2.83;;;2.63;;
791;SDS011;379;49.022;12.148;2022-08-05T00:08:33;3.33;;;3.10;;
791;SDS011;379;49.022;12.148;2022-08-05T00:11:01;3.70;;;3.50;;
791;SDS011;379;49.022;12.148;2022-08-05T00:13:29;3.50;;;3.30;;
791;SDS011;379;49.022;12.148;2022-08-05T00:15:56;3.93;;;3.63;;
791;SDS011;379;49.022;12.148;2022-08-05T00:18:25;4.30;;;4.00;;
791;SDS011;379;49.022;12.148;2022-08-05T00:20:51;3.60;;;3.30;;
791;SDS011;379;49.022;12.148;2022-08-05T00:23:19;3.80;;;3.50;;
791;SDS011;379;49.022;12.148;2022-08-05T00:25:47;4.20;;;3.90;;
791;SDS011;379;49.022;12.148;2022-08-05T00:28:14;4.27;;;3.97;;
791;SDS011;379;49.022;12.148;2022-08-05T00:30:41;4.33;;;4.00;;
791;SDS011;379;49.022;12.148;2022-08-05T00:33:08;4.43;;;3.97;;
791;SDS011;379;49.022;12.148;2022-08-05T00:35:36;4.57;;;4.17;;
791;SDS011;379;49.022;12.148;2022-08-05T00:38:03;4.07;;;3.77;;
791;SDS011;379;49.022;12.148;2022-08-05T00:40:30;4.17;;;3.87;;
791;SDS011;379;49.022;12.148;2022-08-05T00:42:59;5.00;;;4.57;;
791;SDS011;379;49.022;12.148;2022-08-05T00:45:27;3.83;;;3.53;;
791;SDS011;379;49.022;12.148;2022-08-05T00:47:54;4.27;;;3.97;;
791;SDS011;379;49.022;12.148;2022-08-05T00:50:21;5.17;;;4.67;;
791;SDS011;379;49.022;12.148;2022-08-05T00:52:49;3.40;;;3.10;;
791;SDS011;379;49.022;12.148;2022-08-05T00:55:16;4.03;;;3.73;;
791;SDS011;379;49.022;12.148;2022-08-05T00:57:43;3.80;;;3.50;;
791;SDS011;379;49.022;12.148;2022-08-05T01:00:10;3.50;;;3.20;;
791;SDS011;379;49.022;12.148;2022-08-05T01:02:37;3.57;;;3.27;;
791;SDS011;379;49.022;12.148;2022-08-05T01:05:04;4.37;;;3.63;;
791;SDS011;379;49.022;12.148;2022-08-05T01:07:31;4.03;;;3.70;;
791;SDS011;379;49.022;12.148;2022-08-05T01:09:59;4.20;;;3.83;;
791;SDS011;379;49.022;12.148;2022-08-05T01:12:27;4.07;;;3.77;;
791;SDS011;379;49.022;12.148;2022-08-05T01:14:55;4.53;;;4.23;;
791;SDS011;379;49.022;12.148;2022-08-05T01:17:25;5.33;;;4.40;;
791;SDS011;379;49.022;12.148;2022-08-05T01:19:59;4.30;;;4.00;;
791;SDS011;379;49.022;12.148;2022-08-05T01:22:42;4.73;;;4.17;;
791;SDS011;379;49.022;12.148;2022-08-05T01:25:31;4.57;;;4.27;;
791;SDS011;379;49.022;12.148;2022-08-05T01:28:14;3.90;;;3.50;;
791;SDS011;379;49.022;12.148;2022-08-05T01:30:43;3.73;;;3.53;;
791;SDS011;379;49.022;12.148;2022-08-05T01:33:13;3.90;;;3.50;;
791;SDS011;379;49.022;12.148;2022-08-05T01:35:41;4.60;;;4.30;;
791;SDS011;379;49.022;12.148;2022-08-05T01:38:10;3.87;;;3.67;;
791;SDS011;379;49.022;12.148;2022-08-05T01:40:38;4.33;;;4.03;;
791;SDS011;379;49.022;12.148;2022-08-05T01:43:06;3.60;;;3.30;;
791;SDS011;379;49.022;12.148;2022-08-05T01:45:36;3.80;;;3.50;;
791;SDS011;379;49.022;12.148;2022-08-05T01:48:05;3.70;;;3.50;;
791;SDS011;379;49.022;12.148;2022-08-05T01:50:35;4.37;;;4.07;;
791;SDS011;379;49.022;12.148;2022-08-05T01:53:06;4.63;;;3.87;;
791;SDS011;379;49.022;12.148;2022-08-05T01:55:35;4.47;;;4.17;;
791;SDS011;379;49.022;12.148;2022-08-05T01:58:05;6.07;;;4.87;;
791;SDS011;379;49.022;12.148;2022-08-05T02:00:36;4.63;;;4.23;;
791;SDS011;379;49.022;12.148;2022-08-05T02:03:09;4.10;;;3.80;;
791;SDS011;379;49.022;12.148;2022-08-05T02:05:38;4.03;;;3.83;;
791;SDS011;379;49.022;12.148;2022-08-05T02:08:06;5.90;;;4.40;;
791;SDS011;379;49.022;12.148;2022-08-05T02:10:35;4.50;;;4.20;;
791;SDS011;379;49.022;12.148;2022-08-05T02:13:07;4.90;;;4.50;;
791;SDS011;379;49.022;12.148;2022-08-05T02:15:40;5.17;;;4.67;;
791;SDS011;379;49.022;12.148;2022-08-05T02:18:12;4.47;;;4.17;;
791;SDS011;379;49.022;12.148;2022-08-05T02:20:45;5.10;;;4.70;;
791;SDS011;379;49.022;12.148;2022-08-05T02:23:16;6.10;;;5.60;;
791;SDS011;379;49.022;12.148;2022-08-05T02:25:46;6.50;;;4.80;;
791;SDS011;379;49.022;12.148;2022-08-05T02:28:16;5.67;;;5.13;;
791;SDS011;379;49.022;12.148;2022-08-05T02:30:50;5.07;;;4.63;;
791;SDS011;379;49.022;12.148;2022-08-05T02:33:21;5.30;;;4.90;;
791;SDS011;379;49.022;12.148;2022-08-05T02:35:50;5.03;;;4.63;;
791;SDS011;379;49.022;12.148;2022-08-05T02:38:20;5.40;;;4.90;;
791;SDS011;379;49.022;12.148;2022-08-05T02:40:48;4.97;;;4.57;;
791;SDS011;379;49.022;12.148;2022-08-05T02:43:15;4.77;;;4.37;;
791;SDS011;379;49.022;12.148;2022-08-05T02:45:45;5.60;;;5.07;;
791;SDS011;379;49.022;12.148;2022-08-05T02:48:14;5.33;;;4.77;;
791;SDS011;379;49.022;12.148;2022-08-05T02:50:42;5.10;;;4.70;;
791;SDS011;379;49.022;12.148;2022-08-05T02:53:11;4.60;;;4.30;;
791;SDS011;379;49.022;12.148;2022-08-05T02:55:39;5.77;;;5.27;;
791;SDS011;379;49.022;12.148;2022-08-05T02:58:06;5.07;;;4.43;;
791;SDS011;379;49.022;12.148;2022-08-05T03:00:34;5.20;;;4.80;;
791;SDS011;379;49.022;12.148;2022-08-05T03:03:02;5.07;;;4.50;;
791;SDS011;379;49.022;12.148;2022-08-05T03:05:31;4.80;;;4.40;;
791;SDS011;379;49.022;12.148;2022-08-05T03:07:58;5.20;;;4.50;;
791;SDS011;379;49.022;12.148;2022-08-05T03:10:25;4.57;;;4.27;;
791;SDS011;379;49.022;12.148;2022-08-05T03:12:52;5.70;;;5.20;;
791;SDS011;379;49.022;12.148;2022-08-05T03:15:19;4.80;;;4.50;;
791;SDS011;379;49.022;12.148;2022-08-05T03:17:47;5.47;;;5.07;;
791;SDS011;379;49.022;12.148;2022-08-05T03:20:13;4.93;;;4.53;;
791;SDS011;379;49.022;12.148;2022-08-05T03:22:41;4.37;;;4.07;;
791;SDS011;379;49.022;12.148;2022-08-05T03:25:08;5.30;;;4.90;;
791;SDS011;379;49.022;12.148;2022-08-05T03:27:36;5.30;;;4.90;;
791;SDS011;379;49.022;12.148;2022-08-05T03:30:03;8.27;;;5.20;;
791;SDS011;379;49.022;12.148;2022-08-05T03:32:31;5.17;;;4.87;;
791;SDS011;379;49.022;12.148;2022-08-05T03:34:58;5.40;;;4.90;;
791;SDS011;379;49.022;12.148;2022-08-05T03:37:25;5.03;;;4.57;;
791;SDS011;379;49.022;12.148;2022-08-05T03:39:56;5.27;;;4.70;;
791;SDS011;379;49.022;12.148;2022-08-05T03:42:26;5.33;;;4.83;;
791;SDS011;379;49.022;12.148;2022-08-05T03:44:53;5.60;;;5.20;;
791;SDS011;379;49.022;12.148;2022-08-05T03:47:20;5.40;;;5.00;;
791;SDS011;379;49.022;12.148;2022-08-05T03:49:46;5.63;;;5.23;;
791;SDS011;379;49.022;12.148;2022-08-05T03:52:16;5.83;;;5.33;;
791;SDS011;379;49.022;12.148;2022-08-05T03:54:47;6.00;;;5.50;;
791;SDS011;379;49.022;12.148;2022-08-05T03:57:19;5.33;;;4.83;;
791;SDS011;379;49.022;12.148;2022-08-05T03:59:50;5.50;;;5.10;;
791;SDS011;379;49.022;12.148;2022-08-05T04:02:20;6.03;;;5.43;;
791;SDS011;379;49.022;12.148;2022-08-05T04:04:50;5.70;;;5.30;;
791;SDS011;379;49.022;12.148;2022-08-05T04:07:17;5.60;;;5.20;;
791;SDS011;379;49.022;12.148;2022-08-05T04:09:45;5.77;;;5.30;;
791;SDS011;379;49.022;12.148;2022-08-05T04:12:11;4.87;;;4.47;;
791;SDS011;379;49.022;12.148;2022-08-05T04:14:40;7.20;;;5.20;;
791;SDS011;379;49.022;12.148;2022-08-05T04:17:07;5.57;;;5.17;;
791;SDS011;379;49.022;12.148;2022-08-05T04:19:40;5.60;;;5.10;;
791;SDS011;379;49.022;12.148;2022-08-05T04:22:08;6.00;;;5.50;;
791;SDS011;379;49.022;12.148;2022-08-05T04:24:35;6.83;;;6.13;;
791;SDS011;379;49.022;12.148;2022-08-05T04:27:02;5.80;;;5.40;;
791;SDS011;379;49.022;12.148;2022-08-05T04:29:29;5.73;;;5.23;;
791;SDS011;379;49.022;12.148;2022-08-05T04:31:57;6.80;;;6.20;;
791;SDS011;379;49.022;12.148;2022-08-05T04:34:24;6.23;;;5.53;;
791;SDS011;379;49.022;12.148;2022-08-05T04:36:51;6.13;;;5.60;;
791;SDS011;379;49.022;12.148;2022-08-05T04:39:18;5.27;;;4.77;;
791;SDS011;379;49.022;12.148;2022-08-05T04:41:45;4.97;;;4.67;;
791;SDS011;379;49.022;12.148;2022-08-05T04:44:13;4.70;;;4.30;;
791;SDS011;379;49.022;12.148;2022-08-05T04:46:39;4.70;;;3.80;;
791;SDS011;379;49.022;12.148;2022-08-05T04:49:07;4.50;;;4.20;;
791;SDS011;379;49.022;12.148;2022-08-05T04:51:34;4.07;;;3.77;;
791;SDS011;379;49.022;12.148;2022-08-05T04:54:01;4.73;;;4.43;;
791;SDS011;379;49.022;12.148;2022-08-05T04:56:28;4.63;;;4.33;;
791;SDS011;379;49.022;12.148;2022-08-05T04:58:55;6.27;;;5.07;;
791;SDS011;379;49.022;12.148;2022-08-05T05:01:21;4.40;;;4.00;;
791;SDS011;379;49.022;12.148;2022-08-05T05:03:48;4.13;;;3.83;;
791;SDS011;379;49.022;12.148;2022-08-05T05:06:16;4.77;;;4.37;;
791;SDS011;379;49.022;12.148;2022-08-05T05:08:44;3.80;;;3.60;;
791;SDS011;379;49.022;12.148;2022-08-05T05:11:11;4.40;;;4.10;;
791;SDS011;379;49.022;12.148;2022-08-05T05:13:38;4.30;;;4.00;;
791;SDS011;379;49.022;12.148;2022-08-05T05:16:04;4.63;;;4.23;;
791;SDS011;379;49.022;12.148;2022-08-05T05:18:32;5.37;;;4.60;;
791;SDS011;379;49.022;12.148;2022-08-05T05:20:58;4.77;;;4.27;;
791;SDS011;379;49.022;12.148;2022-08-05T05:23:27;14.43;;;4.57;;
791;SDS011;379;49.022;12.148;2022-08-05T05:25:54;4.17;;;3.77;;
791;SDS011;379;49.022;12.148;2022-08-05T05:28:20;9.23;;;5.17;;
791;SDS011;379;49.022;12.148;2022-08-05T05:30:48;7.13;;;4.50;;
791;SDS011;379;49.022;12.148;2022-08-05T05:33:14;15.37;;;4.93;;
791;SDS011;379;49.022;12.148;2022-08-05T05:35:42;7.50;;;4.53;;
791;SDS011;379;49.022;12.148;2022-08-05T05:38:10;4.90;;;3.80;;
791;SDS011;379;49.022;12.148;2022-08-05T05:40:39;5.20;;;4.50;;
791;SDS011;379;49.022;12.148;2022-08-05T05:43:07;5.23;;;4.73;;
791;SDS011;379;49.022;12.148;2022-08-05T05:45:33;7.23;;;4.83;;
791;SDS011;379;49.022;12.148;2022-08-05T05:48:00;5.07;;;4.20;;
791;SDS011;379;49.022;12.148;2022-08-05T05:50:30;10.73;;;3.90;;
791;SDS011;379;49.022;12.148;2022-08-05T05:52:57;9.87;;;4.97;;
791;SDS011;379;49.022;12.148;2022-08-05T05:55:23;6.27;;;4.33;;
791;SDS011;379;49.022;12.148;2022-08-05T05:57:52;9.70;;;4.87;;
791;SDS011;379;49.022;12.148;2022-08-05T06:00:19;9.20;;;4.30;;
791;SDS011;379;49.022;12.148;2022-08-05T06:02:46;4.37;;;3.87;;
791;SDS011;379;49.022;12.148;2022-08-05T06:05:13;5.83;;;4.80;;
791;SDS011;379;49.022;12.148;2022-08-05T06:10:09;6.20;;;4.37;;
791;SDS011;379;49.022;12.148;2022-08-05T06:12:37;4.00;;;3.70;;
791;SDS011;379;49.022;12.148;2022-08-05T06:15:06;4.77;;;4.37;;
791;SDS011;379;49.022;12.148;2022-08-05T06:17:34;4.40;;;4.00;;
791;SDS011;379;49.022;12.148;2022-08-05T06:20:00;5.23;;;4.77;;
791;SDS011;379;49.022;12.148;2022-08-05T06:22:28;4.40;;;4.00;;
791;SDS011;379;49.022;12.148;2022-08-05T06:24:55;4.90;;;4.60;;
791;SDS011;379;49.022;12.148;2022-08-05T06:27:23;6.07;;;4.40;;
791;SDS011;379;49.022;12.148;2022-08-05T06:29:49;5.37;;;4.87;;
791;SDS011;379;49.022;12.148;2022-08-05T06:32:18;4.53;;;4.13;;
791;SDS011;379;49.022;12.148;2022-08-05T06:34:44;5.50;;;4.40;;
791;SDS011;379;49.022;12.148;2022-08-05T06:37:11;4.80;;;4.43;;
791;SDS011;379;49.022;12.148;2022-08-05T06:39:38;5.27;;;4.73;;
791;SDS011;379;49.022;12.148;2022-08-05T06:42:05;4.30;;;3.90;;
791;SDS011;379;49.022;12.148;2022-08-05T06:44:32;4.07;;;3.77;;
791;SDS011;379;49.022;12.148;2022-08-05T06:46:59;4.33;;;4.00;;
791;SDS011;379;49.022;12.148;2022-08-05T06:49:27;6.43;;;4.20;;
791;SDS011;379;49.022;12.148;2022-08-05T06:51:54;5.27;;;4.67;;
791;SDS011;379;49.022;12.148;2022-08-05T06:54:21;5.40;;;3.90;;
791;SDS011;379;49.022;12.148;2022-08-05T06:56:48;4.00;;;3.70;;
791;SDS011;379;49.022;12.148;2022-08-05T06:59:14;4.43;;;4.00;;
791;SDS011;379;49.022;12.148;2022-08-05T07:01:41;4.63;;;4.33;;
791;SDS011;379;49.022;12.148;2022-08-05T07:04:08;3.70;;;3.50;;
791;SDS011;379;49.022;12.148;2022-08-05T07:06:36;5.27;;;4.03;;
791;SDS011;379;49.022;12.148;2022-08-05T07:09:03;3.90;;;3.60;;
791;SDS011;379;49.022;12.148;2022-08-05T07:11:30;4.83;;;4.33;;
791;SDS011;379;49.022;12.148;2022-08-05T07:13:58;4.93;;;4.33;;
791;SDS011;379;49.022;12.148;2022-08-05T07:16:42;4.27;;;3.90;;
791;SDS011;379;49.022;12.148;2022-08-05T07:19:14;6.57;;;4.33;;
791;SDS011;379;49.022;12.148;2022-08-05T07:21:43;4.43;;;4.00;;
791;SDS011;379;49.022;12.148;2022-08-05T07:24:10;4.67;;;4.27;;
791;SDS011;379;49.022;12.148;2022-08-05T07:26:37;5.50;;;5.00;;
791;SDS011;379;49.022;12.148;2022-08-05T07:29:04;3.90;;;3.60;;
791;SDS011;379;49.022;12.148;2022-08-05T07:31:31;6.03;;;4.67;;
791;SDS011;379;49.022;12.148;2022-08-05T07:33:58;4.83;;;4.43;;
791;SDS011;379;49.022;12.148;2022-08-05T07:36:25;4.83;;;4.43;;
791;SDS011;379;49.022;12.148;2022-08-05T07:38:53;4.70;;;4.40;;
791;SDS011;379;49.022;12.148;2022-08-05T07:41:21;4.47;;;4.10;;
791;SDS011;379;49.022;12.148;2022-08-05T07:43:49;7.20;;;5.30;;
791;SDS011;379;49.022;12.148;2022-08-05T07:46:16;4.53;;;4.13;;
791;SDS011;379;49.022;12.148;2022-08-05T07:48:43;4.68;;;4.10;;
791;SDS011;379;49.022;12.148;2022-08-05T07:51:09;4.00;;;3.70;;
791;SDS011;379;49.022;12.148;2022-08-05T07:53:36;4.35;;;3.72;;
791;SDS011;379;49.022;12.148;2022-08-05T07:56:04;4.00;;;3.70;;
791;SDS011;379;49.022;12.148;2022-08-05T07:58:31;5.95;;;3.22;;
791;SDS011;379;49.022;12.148;2022-08-05T08:00:58;8.38;;;3.97;;
791;SDS011;379;49.022;12.148;2022-08-05T08:03:25;6.93;;;3.95;;
791;SDS011;379;49.022;12.148;2022-08-05T08:05:51;4.88;;;3.70;;
791;SDS011;379;49.022;12.148;2022-08-05T08:08:18;6.15;;;4.30;;
791;SDS011;379;49.022;12.148;2022-08-05T08:10:45;4.60;;;4.20;;
791;SDS011;379;49.022;12.148;2022-08-05T08:13:13;5.73;;;4.13;;
791;SDS011;379;49.022;12.148;2022-08-05T08:15:40;4.20;;;3.80;;
791;SDS011;379;49.022;12.148;2022-08-05T08:18:07;5.63;;;4.43;;
791;SDS011;379;49.022;12.148;2022-08-05T08:20:33;5.50;;;5.00;;
791;SDS011;379;49.022;12.148;2022-08-05T08:23:00;6.30;;;5.70;;
791;SDS011;379;49.022;12.148;2022-08-05T08:25:27;4.90;;;4.40;;
791;SDS011;379;49.022;12.148;2022-08-05T08:27:55;4.27;;;3.90;;
791;SDS011;379;49.022;12.148;2022-08-05T08:30:24;4.70;;;4.30;;
791;SDS011;379;49.022;12.148;2022-08-05T08:32:51;4.13;;;3.80;;
791;SDS011;379;49.022;12.148;2022-08-05T08:35:18;4.77;;;4.37;;
791;SDS011;379;49.022;12.148;2022-08-05T08:37:45;4.90;;;4.00;;
791;SDS011;379;49.022;12.148;2022-08-05T08:40:11;4.53;;;3.80;;
791;SDS011;379;49.022;12.148;2022-08-05T08:42:38;6.27;;;5.67;;
791;SDS011;379;49.022;12.148;2022-08-05T08:45:06;5.10;;;4.67;;
791;SDS011;379;49.022;12.148;2022-08-05T08:47:35;4.30;;;4.00;;
791;SDS011;379;49.022;12.148;2022-08-05T08:50:04;7.87;;;4.40;;
791;SDS011;379;49.022;12.148;2022-08-05T08:52:31;4.90;;;4.50;;
791;SDS011;379;49.022;12.148;2022-08-05T08:55:00;5.80;;;4.27;;
791;SDS011;379;49.022;12.148;2022-08-05T08:57:28;4.80;;;4.50;;
791;SDS011;379;49.022;12.148;2022-08-05T08:59:55;5.70;;;4.13;;
791;SDS011;379;49.022;12.148;2022-08-05T09:02:23;5.33;;;4.50;;
791;SDS011;379;49.022;12.148;2022-08-05T09:04:52;7.10;;;4.60;;
791;SDS011;379;49.022;12.148;2022-08-05T09:07:19;7.77;;;4.33;;
791;SDS011;379;49.022;12.148;2022-08-05T09:09:45;4.63;;;3.30;;
791;SDS011;379;49.022;12.148;2022-08-05T09:12:12;5.80;;;3.93;;
791;SDS011;379;49.022;12.148;2022-08-05T09:14:39;7.63;;;3.40;;
791;SDS011;379;49.022;12.148;2022-08-05T09:17:07;5.83;;;3.57;;
791;SDS011;379;49.022;12.148;2022-08-05T09:19:36;16.37;;;4.27;;
791;SDS011;379;49.022;12.148;2022-08-05T09:22:04;4.70;;;3.60;;
791;SDS011;379;49.022;12.148;2022-08-05T09:24:32;7.87;;;4.23;;
791;SDS011;379;49.022;12.148;2022-08-05T09:27:01;15.53;;;4.43;;
791;SDS011;379;49.022;12.148;2022-08-05T09:29:37;13.07;;;4.47;;
791;SDS011;379;49.022;12.148;2022-08-05T09:32:07;25.33;;;5.27;;
791;SDS011;379;49.022;12.148;2022-08-05T09:34:45;13.70;;;4.20;;
791;SDS011;379;49.022;12.148;2022-08-05T09:37:17;8.73;;;3.70;;
791;SDS011;379;49.022;12.148;2022-08-05T09:39:45;9.00;;;4.30;;
791;SDS011;379;49.022;12.148;2022-08-05T09:42:12;3.93;;;3.57;;
791;SDS011;379;49.022;12.148;2022-08-05T09:44:41;11.23;;;4.40;;
791;SDS011;379;49.022;12.148;2022-08-05T09:47:11;7.53;;;4.37;;
791;SDS011;379;49.022;12.148;2022-08-05T09:49:39;5.90;;;4.07;;
791;SDS011;379;49.022;12.148;2022-08-05T09:52:19;6.37;;;4.20;;
791;SDS011;379;49.022;12.148;2022-08-05T09:54:52;9.03;;;4.60;;
791;SDS011;379;49.022;12.148;2022-08-05T09:57:30;6.07;;;3.60;;
791;SDS011;379;49.022;12.148;2022-08-05T09:59:59;9.30;;;4.40;;
791;SDS011;379;49.022;12.148;2022-08-05T10:02:29;6.10;;;4.00;;
791;SDS011;379;49.022;12.148;2022-08-05T10:05:02;9.00;;;4.00;;
791;SDS011;379;49.022;12.148;2022-08-05T10:07:51;5.47;;;4.33;;
791;SDS011;379;49.022;12.148;2022-08-05T10:10:20;9.00;;;4.27;;
791;SDS011;379;49.022;12.148;2022-08-05T10:12:52;14.97;;;4.70;;
791;SDS011;379;49.022;12.148;2022-08-05T10:15:21;9.93;;;3.90;;
791;SDS011;379;49.022;12.148;2022-08-05T10:18:06;9.60;;;3.50;;
791;SDS011;379;49.022;12.148;2022-08-05T10:20:38;7.00;;;3.00;;
791;SDS011;379;49.022;12.148;2022-08-05T10:23:10;11.23;;;2.93;;
791;SDS011;379;49.022;12.148;2022-08-05T10:25:37;3.57;;;3.27;;
791;SDS011;379;49.022;12.148;2022-08-05T10:28:04;8.70;;;3.33;;
791;SDS011;379;49.022;12.148;2022-08-05T10:30:32;3.40;;;3.07;;
791;SDS011;379;49.022;12.148;2022-08-05T10:33:00;2.80;;;2.60;;
791;SDS011;379;49.022;12.148;2022-08-05T10:35:28;5.07;;;2.40;;
791;SDS011;379;49.022;12.148;2022-08-05T10:37:55;5.60;;;3.40;;
791;SDS011;379;49.022;12.148;2022-08-05T10:40:27;4.80;;;2.90;;
791;SDS011;379;49.022;12.148;2022-08-05T10:43:00;4.07;;;3.00;;
791;SDS011;379;49.022;12.148;2022-08-05T10:45:32;2.47;;;2.27;;
791;SDS011;379;49.022;12.148;2022-08-05T10:51:03;2.50;;;2.30;;
791;SDS011;379;49.022;12.148;2022-08-05T10:53:36;5.30;;;2.50;;
791;SDS011;379;49.022;12.148;2022-08-05T10:56:07;4.97;;;2.70;;
791;SDS011;379;49.022;12.148;2022-08-05T10:58:35;6.20;;;2.97;;
791;SDS011;379;49.022;12.148;2022-08-05T11:01:12;2.40;;;2.20;;
791;SDS011;379;49.022;12.148;2022-08-05T11:06:31;3.30;;;2.50;;
791;SDS011;379;49.022;12.148;2022-08-05T11:11:55;3.00;;;2.70;;
791;SDS011;379;49.022;12.148;2022-08-05T11:14:23;2.70;;;2.50;;
791;SDS011;379;49.022;12.148;2022-08-05T11:19:53;2.60;;;2.40;;
791;SDS011;379;49.022;12.148;2022-08-05T11:22:38;3.77;;;2.53;;
791;SDS011;379;49.022;12.148;2022-08-05T11:27:54;2.60;;;2.27;;
791;SDS011;379;49.022;12.148;2022-08-05T11:30:22;2.67;;;2.23;;
791;SDS011;379;49.022;12.148;2022-08-05T11:32:48;2.37;;;2.20;;
791;SDS011;379;49.022;12.148;2022-08-05T11:38:18;2.37;;;2.17;;
791;SDS011;379;49.022;12.148;2022-08-05T11:41:20;3.80;;;2.07;;
791;SDS011;379;49.022;12.148;2022-08-05T11:43:54;4.03;;;2.70;;
791;SDS011;379;49.022;12.148;2022-08-05T11:46:25;3.40;;;2.30;;
791;SDS011;379;49.022;12.148;2022-08-05T11:48:52;2.73;;;2.50;;
791;SDS011;379;49.022;12.148;2022-08-05T11:51:20;3.43;;;2.03;;
791;SDS011;379;49.022;12.148;2022-08-05T11:53:47;4.23;;;2.60;;
791;SDS011;379;49.022;12.148;2022-08-05T11:56:15;2.20;;;2.00;;
791;SDS011;379;49.022;12.148;2022-08-05T11:58:44;2.50;;;2.30;;
791;SDS011;379;49.022;12.148;2022-08-05T12:01:12;3.63;;;2.47;;
791;SDS011;379;49.022;12.148;2022-08-05T12:03:41;2.33;;;2.13;;
791;SDS011;379;49.022;12.148;2022-08-05T12:06:10;2.80;;;1.87;;
791;SDS011;379;49.022;12.148;2022-08-05T12:08:39;2.00;;;1.90;;
791;SDS011;379;49.022;12.148;2022-08-05T12:11:07;2.57;;;2.37;;
791;SDS011;379;49.022;12.148;2022-08-05T12:13:37;2.63;;;2.43;;
791;SDS011;379;49.022;12.148;2022-08-05T12:16:04;2.20;;;2.00;;
791;SDS011;379;49.022;12.148;2022-08-05T12:18:32;2.73;;;2.50;;
791;SDS011;379;49.022;12.148;2022-08-05T12:21:10;2.50;;;1.93;;
791;SDS011;379;49.022;12.148;2022-08-05T12:23:38;4.83;;;2.20;;
791;SDS011;379;49.022;12.148;2022-08-05T12:26:05;2.37;;;2.23;;
791;SDS011;379;49.022;12.148;2022-08-05T12:28:32;2.63;;;2.43;;
791;SDS011;379;49.022;12.148;2022-08-05T12:31:01;2.40;;;2.20;;
791;SDS011;379;49.022;12.148;2022-08-05T12:33:28;2.73;;;2.53;;
791;SDS011;379;49.022;12.148;2022-08-05T12:35:55;2.60;;;2.30;;
791;SDS011;379;49.022;12.148;2022-08-05T12:38:22;2.30;;;2.10;;
791;SDS011;379;49.022;12.148;2022-08-05T12:40:49;2.10;;;2.00;;
791;SDS011;379;49.022;12.148;2022-08-05T12:43:17;2.60;;;2.23;;
791;SDS011;379;49.022;12.148;2022-08-05T12:45:51;4.17;;;2.37;;
791;SDS011;379;49.022;12.148;2022-08-05T12:48:20;5.87;;;1.83;;
791;SDS011;379;49.022;12.148;2022-08-05T12:53:40;2.10;;;2.00;;
791;SDS011;379;49.022;12.148;2022-08-05T12:56:17;4.23;;;2.30;;
791;SDS011;379;49.022;12.148;2022-08-05T13:01:41;3.10;;;2.20;;
791;SDS011;379;49.022;12.148;2022-08-05T13:04:11;2.20;;;2.00;;
791;SDS011;379;49.022;12.148;2022-08-05T13:06:39;2.77;;;2.30;;
791;SDS011;379;49.022;12.148;2022-08-05T13:09:08;3.10;;;2.07;;
791;SDS011;379;49.022;12.148;2022-08-05T13:11:37;2.10;;;2.00;;
791;SDS011;379;49.022;12.148;2022-08-05T13:14:09;2.93;;;2.20;;
791;SDS011;379;49.022;12.148;2022-08-05T13:16:44;1.80;;;1.70;;
791;SDS011;379;49.022;12.148;2022-08-05T13:19:16;3.67;;;2.07;;
791;SDS011;379;49.022;12.148;2022-08-05T13:21:45;2.40;;;2.20;;
791;SDS011;379;49.022;12.148;2022-08-05T13:24:12;2.53;;;2.33;;
791;SDS011;379;49.022;12.148;2022-08-05T13:26:40;3.07;;;2.03;;
791;SDS011;379;49.022;12.148;2022-08-05T13:29:08;2.87;;;2.43;;
791;SDS011;379;49.022;12.148;2022-08-05T13:31:35;2.00;;;1.80;;
791;SDS011;379;49.022;12.148;2022-08-05T13:34:01;2.37;;;1.80;;
791;SDS011;379;49.022;12.148;2022-08-05T13:36:30;2.30;;;2.10;;
791;SDS011;379;49.022;12.148;2022-08-05T13:38:57;5.03;;;2.33;;
791;SDS011;379;49.022;12.148;2022-08-05T13:41:24;2.43;;;2.23;;
791;SDS011;379;49.022;12.148;2022-08-05T13:43:50;3.10;;;2.80;;
791;SDS011;379;49.022;12.148;2022-08-05T13:46:17;3.10;;;2.50;;
791;SDS011;379;49.022;12.148;2022-08-05T13:48:44;3.67;;;1.80;;
791;SDS011;379;49.022;12.148;2022-08-05T13:51:11;2.27;;;2.07;;
791;SDS011;379;49.022;12.148;2022-08-05T13:53:40;2.57;;;2.00;;
791;SDS011;379;49.022;12.148;2022-08-05T13:56:08;2.10;;;2.00;;
791;SDS011;379;49.022;12.148;2022-08-05T13:58:34;5.13;;;2.07;;
791;SDS011;379;49.022;12.148;2022-08-05T14:01:02;3.67;;;2.00;;
791;SDS011;379;49.022;12.148;2022-08-05T14:03:29;2.20;;;2.10;;
791;SDS011;379;49.022;12.148;2022-08-05T14:05:56;2.60;;;2.20;;
791;SDS011;379;49.022;12.148;2022-08-05T14:08:21;2.50;;;2.37;;
791;SDS011;379;49.022;12.148;2022-08-05T14:10:49;2.27;;;2.07;;
791;SDS011;379;49.022;12.148;2022-08-05T14:13:16;2.00;;;1.90;;
791;SDS011;379;49.022;12.148;2022-08-05T14:15:43;2.13;;;1.87;;
791;SDS011;379;49.022;12.148;2022-08-05T14:18:10;2.90;;;1.90;;
791;SDS011;379;49.022;12.148;2022-08-05T14:20:37;2.40;;;2.30;;
791;SDS011;379;49.022;12.148;2022-08-05T14:23:03;2.40;;;2.20;;
791;SDS011;379;49.022;12.148;2022-08-05T14:25:30;2.37;;;2.27;;
791;SDS011;379;49.022;12.148;2022-08-05T14:27:58;2.50;;;2.30;;
791;SDS011;379;49.022;12.148;2022-08-05T14:30:25;2.13;;;1.97;;
791;SDS011;379;49.022;12.148;2022-08-05T14:32:52;2.33;;;1.60;;
791;SDS011;379;49.022;12.148;2022-08-05T14:35:19;2.47;;;2.37;;
791;SDS011;379;49.022;12.148;2022-08-05T14:37:45;2.30;;;2.10;;
791;SDS011;379;49.022;12.148;2022-08-05T14:40:12;2.50;;;2.13;;
791;SDS011;379;49.022;12.148;2022-08-05T14:42:39;2.03;;;1.93;;
791;SDS011;379;49.022;12.148;2022-08-05T14:45:08;2.30;;;2.10;;
791;SDS011;379;49.022;12.148;2022-08-05T14:47:35;2.80;;;2.40;;
791;SDS011;379;49.022;12.148;2022-08-05T14:50:02;2.30;;;2.10;;
791;SDS011;379;49.022;12.148;2022-08-05T14:52:29;2.53;;;2.33;;
791;SDS011;379;49.022;12.148;2022-08-05T14:54:56;3.60;;;2.53;;
791;SDS011;379;49.022;12.148;2022-08-05T14:57:23;2.17;;;2.07;;
791;SDS011;379;49.022;12.148;2022-08-05T14:59:49;2.33;;;2.13;;
791;SDS011;379;49.022;12.148;2022-08-05T15:02:18;5.17;;;2.00;;
791;SDS011;379;49.022;12.148;2022-08-05T15:04:44;2.20;;;2.00;;
791;SDS011;379;49.022;12.148;2022-08-05T15:07:11;2.57;;;1.90;;
791;SDS011;379;49.022;12.148;2022-08-05T15:09:38;2.60;;;2.40;;
791;SDS011;379;49.022;12.148;2022-08-05T15:12:05;3.00;;;2.07;;
791;SDS011;379;49.022;12.148;2022-08-05T15:14:32;2.10;;;2.00;;
791;SDS011;379;49.022;12.148;2022-08-05T15:16:59;3.50;;;2.23;;
791;SDS011;379;49.022;12.148;2022-08-05T15:19:27;2.60;;;2.40;;
791;SDS011;379;49.022;12.148;2022-08-05T15:21:54;1.80;;;1.70;;
791;SDS011;379;49.022;12.148;2022-08-05T15:24:21;2.47;;;2.00;;
791;SDS011;379;49.022;12.148;2022-08-05T15:26:47;2.73;;;2.53;;
791;SDS011;379;49.022;12.148;2022-08-05T15:29:14;2.57;;;2.40;;
791;SDS011;379;49.022;12.148;2022-08-05T15:31:41;2.50;;;2.07;;
791;SDS011;379;49.022;12.148;2022-08-05T15:34:08;2.60;;;2.00;;
791;SDS011;379;49.022;12.148;2022-08-05T15:36:36;2.93;;;2.30;;
791;SDS011;379;49.022;12.148;2022-08-05T15:39:03;3.43;;;2.77;;
791;SDS011;379;49.022;12.148;2022-08-05T15:41:29;2.50;;;2.30;;
791;SDS011;379;49.022;12.148;2022-08-05T15:43:56;4.13;;;2.83;;
791;SDS011;379;49.022;12.148;2022-08-05T15:46:23;2.97;;;2.10;;
791;SDS011;379;49.022;12.148;2022-08-05T15:48:50;2.33;;;2.13;;
791;SDS011;379;49.022;12.148;2022-08-05T15:51:16;2.50;;;2.30;;
791;SDS011;379;49.022;12.148;2022-08-05T15:53:47;2.40;;;2.20;;
791;SDS011;379;49.022;12.148;2022-08-05T15:56:15;3.60;;;2.37;;
791;SDS011;379;49.022;12.148;2022-08-05T15:58:43;3.20;;;2.80;;
791;SDS011;379;49.022;12.148;2022-08-05T16:01:10;4.50;;;2.43;;
791;SDS011;379;49.022;12.148;2022-08-05T16:03:38;4.40;;;1.97;;